sensor_id;sensor_type;location;lat;lon;timestamp;P1;durP1;ratioP1;P2;durP2;ratioP2
8556;SDS011;4316;53.840;10.762;2022-08-21T00:01:45;9.47;;;1.90;;
8556;SDS011;4316;53.840;10.762;2022-08-21T00:04:11;6.83;;;2.03;;
8556;SDS011;4316;53.840;10.762;2022-08-21T00:06:38;2.53;;;1.80;;
8556;SDS011;4316;53.840;10.762;2022-08-21T00:09:05;3.40;;;2.30;;
8556;SDS011;4316;53.840;10.762;2022-08-21T00:11:31;9.30;;;2.00;;
8556;SDS011;4316;53.840;10.762;2022-08-21T00:13:58;2.30;;;1.93;;
8556;SDS011;4316;53.840;10.762;2022-08-21T00:16:23;5.10;;;1.60;;
8556;SDS011;4316;53.840;10.762;2022-08-21T00:18:49;3.00;;;1.80;;
8556;SDS011;4316;53.840;10.762;2022-08-21T00:21:15;7.23;;;1.80;;
8556;SDS011;4316;53.840;10.762;2022-08-21T00:23:41;6.87;;;2.27;;
8556;SDS011;4316;53.840;10.762;2022-08-21T00:26:07;4.40;;;1.90;;
8556;SDS011;4316;53.840;10.762;2022-08-21T00:28:33;4.20;;;1.70;;
8556;SDS011;4316;53.840;10.762;2022-08-21T00:30:59;3.40;;;1.67;;
8556;SDS011;4316;53.840;10.762;2022-08-21T00:33:25;7.43;;;1.60;;
8556;SDS011;4316;53.840;10.762;2022-08-21T00:35:51;2.17;;;1.50;;
8556;SDS011;4316;53.840;10.762;2022-08-21T00:38:17;4.43;;;1.77;;
8556;SDS011;4316;53.840;10.762;2022-08-21T00:40:50;3.23;;;1.50;;
8556;SDS011;4316;53.840;10.762;2022-08-21T00:43:19;3.93;;;1.30;;
8556;SDS011;4316;53.840;10.762;2022-08-21T00:45:49;4.37;;;1.97;;
8556;SDS011;4316;53.840;10.762;2022-08-21T00:48:14;6.00;;;2.23;;
8556;SDS011;4316;53.840;10.762;2022-08-21T00:50:45;4.67;;;1.57;;
8556;SDS011;4316;53.840;10.762;2022-08-21T00:53:16;6.10;;;1.93;;
8556;SDS011;4316;53.840;10.762;2022-08-21T00:55:42;5.40;;;2.10;;
8556;SDS011;4316;53.840;10.762;2022-08-21T00:58:11;5.83;;;1.50;;
8556;SDS011;4316;53.840;10.762;2022-08-21T01:00:39;6.33;;;1.97;;
8556;SDS011;4316;53.840;10.762;2022-08-21T01:03:08;7.07;;;2.13;;
8556;SDS011;4316;53.840;10.762;2022-08-21T01:05:36;3.50;;;1.53;;
8556;SDS011;4316;53.840;10.762;2022-08-21T01:08:03;4.97;;;2.07;;
8556;SDS011;4316;53.840;10.762;2022-08-21T01:10:29;4.83;;;2.30;;
8556;SDS011;4316;53.840;10.762;2022-08-21T01:12:55;6.17;;;1.90;;
8556;SDS011;4316;53.840;10.762;2022-08-21T01:15:23;6.50;;;1.70;;
8556;SDS011;4316;53.840;10.762;2022-08-21T01:17:53;2.70;;;2.07;;
8556;SDS011;4316;53.840;10.762;2022-08-21T01:20:19;3.33;;;1.90;;
8556;SDS011;4316;53.840;10.762;2022-08-21T01:22:45;2.67;;;1.60;;
8556;SDS011;4316;53.840;10.762;2022-08-21T01:25:11;3.53;;;1.93;;
8556;SDS011;4316;53.840;10.762;2022-08-21T01:27:40;3.47;;;1.60;;
8556;SDS011;4316;53.840;10.762;2022-08-21T01:30:11;3.53;;;2.10;;
8556;SDS011;4316;53.840;10.762;2022-08-21T01:32:40;2.63;;;2.00;;
8556;SDS011;4316;53.840;10.762;2022-08-21T01:35:07;6.17;;;2.03;;
8556;SDS011;4316;53.840;10.762;2022-08-21T01:37:33;4.87;;;2.50;;
8556;SDS011;4316;53.840;10.762;2022-08-21T01:40:00;3.37;;;1.97;;
8556;SDS011;4316;53.840;10.762;2022-08-21T01:42:25;3.87;;;2.10;;
8556;SDS011;4316;53.840;10.762;2022-08-21T01:44:51;4.93;;;2.03;;
8556;SDS011;4316;53.840;10.762;2022-08-21T01:47:17;5.67;;;2.30;;
8556;SDS011;4316;53.840;10.762;2022-08-21T01:49:43;5.50;;;2.00;;
8556;SDS011;4316;53.840;10.762;2022-08-21T01:52:09;5.80;;;2.30;;
8556;SDS011;4316;53.840;10.762;2022-08-21T01:54:37;5.47;;;2.10;;
8556;SDS011;4316;53.840;10.762;2022-08-21T01:57:03;2.47;;;1.70;;
8556;SDS011;4316;53.840;10.762;2022-08-21T01:59:30;5.50;;;2.10;;
8556;SDS011;4316;53.840;10.762;2022-08-21T02:01:55;2.07;;;1.70;;
8556;SDS011;4316;53.840;10.762;2022-08-21T02:04:21;4.30;;;1.97;;
8556;SDS011;4316;53.840;10.762;2022-08-21T02:06:47;6.73;;;1.80;;
8556;SDS011;4316;53.840;10.762;2022-08-21T02:09:14;4.03;;;1.80;;
8556;SDS011;4316;53.840;10.762;2022-08-21T02:11:40;2.37;;;1.70;;
8556;SDS011;4316;53.840;10.762;2022-08-21T02:14:07;6.40;;;2.00;;
8556;SDS011;4316;53.840;10.762;2022-08-21T02:16:34;3.67;;;1.83;;
8556;SDS011;4316;53.840;10.762;2022-08-21T02:19:01;4.50;;;1.90;;
8556;SDS011;4316;53.840;10.762;2022-08-21T02:21:27;3.23;;;2.07;;
8556;SDS011;4316;53.840;10.762;2022-08-21T02:23:52;8.07;;;2.10;;
8556;SDS011;4316;53.840;10.762;2022-08-21T02:26:18;9.17;;;1.83;;
8556;SDS011;4316;53.840;10.762;2022-08-21T02:28:43;7.00;;;2.10;;
8556;SDS011;4316;53.840;10.762;2022-08-21T02:31:09;5.27;;;3.00;;
8556;SDS011;4316;53.840;10.762;2022-08-21T02:33:35;7.90;;;1.83;;
8556;SDS011;4316;53.840;10.762;2022-08-21T02:36:01;5.43;;;1.93;;
8556;SDS011;4316;53.840;10.762;2022-08-21T02:38:29;9.53;;;2.10;;
8556;SDS011;4316;53.840;10.762;2022-08-21T02:40:58;5.53;;;2.00;;
8556;SDS011;4316;53.840;10.762;2022-08-21T02:43:24;3.47;;;1.83;;
8556;SDS011;4316;53.840;10.762;2022-08-21T02:45:52;4.97;;;1.80;;
8556;SDS011;4316;53.840;10.762;2022-08-21T02:48:21;2.23;;;1.83;;
8556;SDS011;4316;53.840;10.762;2022-08-21T02:50:54;7.43;;;2.27;;
8556;SDS011;4316;53.840;10.762;2022-08-21T02:53:22;2.33;;;1.60;;
8556;SDS011;4316;53.840;10.762;2022-08-21T02:55:49;3.67;;;1.90;;
8556;SDS011;4316;53.840;10.762;2022-08-21T02:58:22;5.93;;;1.97;;
8556;SDS011;4316;53.840;10.762;2022-08-21T03:00:51;2.63;;;1.67;;
8556;SDS011;4316;53.840;10.762;2022-08-21T03:03:17;3.30;;;1.90;;
8556;SDS011;4316;53.840;10.762;2022-08-21T03:05:46;2.77;;;1.60;;
8556;SDS011;4316;53.840;10.762;2022-08-21T03:08:12;3.70;;;2.00;;
8556;SDS011;4316;53.840;10.762;2022-08-21T03:10:39;6.97;;;2.30;;
8556;SDS011;4316;53.840;10.762;2022-08-21T03:13:07;4.50;;;2.00;;
8556;SDS011;4316;53.840;10.762;2022-08-21T03:15:33;4.60;;;2.10;;
8556;SDS011;4316;53.840;10.762;2022-08-21T03:17:59;5.20;;;2.03;;
8556;SDS011;4316;53.840;10.762;2022-08-21T03:20:25;6.40;;;2.33;;
8556;SDS011;4316;53.840;10.762;2022-08-21T03:22:54;7.17;;;1.83;;
8556;SDS011;4316;53.840;10.762;2022-08-21T03:25:23;2.53;;;1.70;;
8556;SDS011;4316;53.840;10.762;2022-08-21T03:27:50;3.13;;;2.13;;
8556;SDS011;4316;53.840;10.762;2022-08-21T03:30:17;6.00;;;2.27;;
8556;SDS011;4316;53.840;10.762;2022-08-21T03:32:45;6.70;;;2.00;;
8556;SDS011;4316;53.840;10.762;2022-08-21T03:35:11;2.17;;;1.70;;
8556;SDS011;4316;53.840;10.762;2022-08-21T03:37:38;4.47;;;1.73;;
8556;SDS011;4316;53.840;10.762;2022-08-21T03:40:04;3.83;;;2.13;;
8556;SDS011;4316;53.840;10.762;2022-08-21T03:42:31;6.10;;;1.73;;
8556;SDS011;4316;53.840;10.762;2022-08-21T03:44:57;5.67;;;1.83;;
8556;SDS011;4316;53.840;10.762;2022-08-21T03:47:22;4.63;;;1.70;;
8556;SDS011;4316;53.840;10.762;2022-08-21T03:49:48;4.03;;;2.10;;
8556;SDS011;4316;53.840;10.762;2022-08-21T03:52:14;3.63;;;2.03;;
8556;SDS011;4316;53.840;10.762;2022-08-21T03:54:41;2.60;;;2.03;;
8556;SDS011;4316;53.840;10.762;2022-08-21T03:57:07;7.80;;;2.03;;
8556;SDS011;4316;53.840;10.762;2022-08-21T03:59:33;3.73;;;1.87;;
8556;SDS011;4316;53.840;10.762;2022-08-21T04:02:00;4.53;;;2.13;;
8556;SDS011;4316;53.840;10.762;2022-08-21T04:04:28;5.80;;;2.00;;
8556;SDS011;4316;53.840;10.762;2022-08-21T04:06:57;5.20;;;2.10;;
8556;SDS011;4316;53.840;10.762;2022-08-21T04:09:23;4.17;;;2.10;;
8556;SDS011;4316;53.840;10.762;2022-08-21T04:11:49;5.30;;;1.43;;
8556;SDS011;4316;53.840;10.762;2022-08-21T04:14:15;2.83;;;2.00;;
8556;SDS011;4316;53.840;10.762;2022-08-21T04:16:42;7.60;;;2.33;;
8556;SDS011;4316;53.840;10.762;2022-08-21T04:19:09;4.47;;;2.00;;
8556;SDS011;4316;53.840;10.762;2022-08-21T04:21:36;5.60;;;1.97;;
8556;SDS011;4316;53.840;10.762;2022-08-21T04:24:03;3.77;;;1.97;;
8556;SDS011;4316;53.840;10.762;2022-08-21T04:26:29;1.77;;;1.67;;
8556;SDS011;4316;53.840;10.762;2022-08-21T04:28:56;2.53;;;1.73;;
8556;SDS011;4316;53.840;10.762;2022-08-21T04:31:22;2.30;;;1.80;;
8556;SDS011;4316;53.840;10.762;2022-08-21T04:33:49;2.93;;;1.80;;
8556;SDS011;4316;53.840;10.762;2022-08-21T04:36:15;2.23;;;1.97;;
8556;SDS011;4316;53.840;10.762;2022-08-21T04:38:41;5.57;;;1.77;;
8556;SDS011;4316;53.840;10.762;2022-08-21T04:41:07;5.30;;;2.17;;
8556;SDS011;4316;53.840;10.762;2022-08-21T04:43:32;3.70;;;1.90;;
8556;SDS011;4316;53.840;10.762;2022-08-21T04:45:58;3.20;;;1.60;;
8556;SDS011;4316;53.840;10.762;2022-08-21T04:48:25;2.00;;;1.80;;
8556;SDS011;4316;53.840;10.762;2022-08-21T04:50:56;6.47;;;2.20;;
8556;SDS011;4316;53.840;10.762;2022-08-21T04:53:30;4.63;;;2.33;;
8556;SDS011;4316;53.840;10.762;2022-08-21T04:55:57;2.97;;;1.53;;
8556;SDS011;4316;53.840;10.762;2022-08-21T04:58:25;6.10;;;1.90;;
8556;SDS011;4316;53.840;10.762;2022-08-21T05:00:55;4.23;;;1.97;;
8556;SDS011;4316;53.840;10.762;2022-08-21T05:03:22;1.70;;;1.60;;
8556;SDS011;4316;53.840;10.762;2022-08-21T05:05:48;1.83;;;1.73;;
8556;SDS011;4316;53.840;10.762;2022-08-21T05:08:15;3.13;;;1.83;;
8556;SDS011;4316;53.840;10.762;2022-08-21T05:10:43;3.37;;;1.63;;
8556;SDS011;4316;53.840;10.762;2022-08-21T05:13:09;3.03;;;2.30;;
8556;SDS011;4316;53.840;10.762;2022-08-21T05:15:37;6.37;;;2.63;;
8556;SDS011;4316;53.840;10.762;2022-08-21T05:18:05;3.53;;;2.50;;
8556;SDS011;4316;53.840;10.762;2022-08-21T05:20:31;4.83;;;2.60;;
8556;SDS011;4316;53.840;10.762;2022-08-21T05:22:59;4.10;;;1.77;;
8556;SDS011;4316;53.840;10.762;2022-08-21T05:25:26;6.23;;;2.30;;
8556;SDS011;4316;53.840;10.762;2022-08-21T05:27:52;4.77;;;1.93;;
8556;SDS011;4316;53.840;10.762;2022-08-21T05:30:18;5.83;;;2.07;;
8556;SDS011;4316;53.840;10.762;2022-08-21T05:32:45;4.23;;;1.80;;
8556;SDS011;4316;53.840;10.762;2022-08-21T05:35:12;2.83;;;1.73;;
8556;SDS011;4316;53.840;10.762;2022-08-21T05:37:38;5.43;;;2.00;;
8556;SDS011;4316;53.840;10.762;2022-08-21T05:40:04;7.57;;;1.80;;
8556;SDS011;4316;53.840;10.762;2022-08-21T05:42:31;3.70;;;1.83;;
8556;SDS011;4316;53.840;10.762;2022-08-21T05:44:57;1.47;;;1.37;;
8556;SDS011;4316;53.840;10.762;2022-08-21T05:47:22;4.77;;;2.00;;
8556;SDS011;4316;53.840;10.762;2022-08-21T05:49:48;7.03;;;1.83;;
8556;SDS011;4316;53.840;10.762;2022-08-21T05:52:18;2.80;;;1.60;;
8556;SDS011;4316;53.840;10.762;2022-08-21T05:54:44;2.83;;;1.70;;
8556;SDS011;4316;53.840;10.762;2022-08-21T05:57:10;3.57;;;1.87;;
8556;SDS011;4316;53.840;10.762;2022-08-21T05:59:36;5.53;;;2.17;;
8556;SDS011;4316;53.840;10.762;2022-08-21T06:02:02;4.40;;;1.83;;
8556;SDS011;4316;53.840;10.762;2022-08-21T06:04:28;3.47;;;1.90;;
8556;SDS011;4316;53.840;10.762;2022-08-21T06:06:54;2.13;;;1.93;;
8556;SDS011;4316;53.840;10.762;2022-08-21T06:09:20;6.27;;;2.23;;
8556;SDS011;4316;53.840;10.762;2022-08-21T06:11:46;3.57;;;1.83;;
8556;SDS011;4316;53.840;10.762;2022-08-21T06:14:14;5.33;;;2.50;;
8556;SDS011;4316;53.840;10.762;2022-08-21T06:16:40;5.63;;;2.20;;
8556;SDS011;4316;53.840;10.762;2022-08-21T06:19:05;4.37;;;2.23;;
8556;SDS011;4316;53.840;10.762;2022-08-21T06:21:31;2.07;;;1.67;;
8556;SDS011;4316;53.840;10.762;2022-08-21T06:23:57;3.53;;;2.23;;
8556;SDS011;4316;53.840;10.762;2022-08-21T06:26:22;3.83;;;1.80;;
8556;SDS011;4316;53.840;10.762;2022-08-21T06:28:48;5.90;;;1.97;;
8556;SDS011;4316;53.840;10.762;2022-08-21T06:31:15;6.23;;;1.80;;
8556;SDS011;4316;53.840;10.762;2022-08-21T06:33:43;2.67;;;1.87;;
8556;SDS011;4316;53.840;10.762;2022-08-21T06:36:09;6.97;;;1.90;;
8556;SDS011;4316;53.840;10.762;2022-08-21T06:38:35;3.43;;;1.90;;
8556;SDS011;4316;53.840;10.762;2022-08-21T06:41:02;4.73;;;1.87;;
8556;SDS011;4316;53.840;10.762;2022-08-21T06:43:28;5.03;;;2.20;;
8556;SDS011;4316;53.840;10.762;2022-08-21T06:45:54;3.63;;;1.77;;
8556;SDS011;4316;53.840;10.762;2022-08-21T06:48:20;7.07;;;2.00;;
8556;SDS011;4316;53.840;10.762;2022-08-21T06:50:46;8.03;;;2.30;;
8556;SDS011;4316;53.840;10.762;2022-08-21T06:53:13;6.47;;;2.10;;
8556;SDS011;4316;53.840;10.762;2022-08-21T06:55:41;6.38;;;1.80;;
8556;SDS011;4316;53.840;10.762;2022-08-21T06:58:07;2.57;;;1.70;;
8556;SDS011;4316;53.840;10.762;2022-08-21T07:00:33;4.10;;;1.80;;
8556;SDS011;4316;53.840;10.762;2022-08-21T07:03:03;8.48;;;2.30;;
8556;SDS011;4316;53.840;10.762;2022-08-21T07:05:29;4.45;;;1.70;;
8556;SDS011;4316;53.840;10.762;2022-08-21T07:07:56;6.38;;;1.88;;
8556;SDS011;4316;53.840;10.762;2022-08-21T07:10:22;5.18;;;1.92;;
8556;SDS011;4316;53.840;10.762;2022-08-21T07:12:52;4.45;;;1.67;;
8556;SDS011;4316;53.840;10.762;2022-08-21T07:15:19;5.50;;;1.75;;
8556;SDS011;4316;53.840;10.762;2022-08-21T07:17:45;5.88;;;1.77;;
8556;SDS011;4316;53.840;10.762;2022-08-21T07:20:11;4.97;;;1.98;;
8556;SDS011;4316;53.840;10.762;2022-08-21T07:22:36;4.25;;;1.73;;
8556;SDS011;4316;53.840;10.762;2022-08-21T07:25:04;4.28;;;2.30;;
8556;SDS011;4316;53.840;10.762;2022-08-21T07:27:30;5.78;;;2.38;;
8556;SDS011;4316;53.840;10.762;2022-08-21T07:29:56;25.48;;;12.80;;
8556;SDS011;4316;53.840;10.762;2022-08-21T07:32:22;33.25;;;21.42;;
8556;SDS011;4316;53.840;10.762;2022-08-21T07:34:48;20.75;;;12.45;;
8556;SDS011;4316;53.840;10.762;2022-08-21T07:37:14;3.50;;;1.88;;
8556;SDS011;4316;53.840;10.762;2022-08-21T07:39:40;6.15;;;2.75;;
8556;SDS011;4316;53.840;10.762;2022-08-21T07:42:06;3.92;;;2.67;;
8556;SDS011;4316;53.840;10.762;2022-08-21T07:44:31;7.70;;;2.22;;
8556;SDS011;4316;53.840;10.762;2022-08-21T07:46:59;8.45;;;3.63;;
8556;SDS011;4316;53.840;10.762;2022-08-21T07:49:25;4.45;;;2.17;;
8556;SDS011;4316;53.840;10.762;2022-08-21T07:51:51;4.63;;;1.60;;
8556;SDS011;4316;53.840;10.762;2022-08-21T07:54:16;5.32;;;2.30;;
8556;SDS011;4316;53.840;10.762;2022-08-21T07:56:42;3.00;;;1.73;;
8556;SDS011;4316;53.840;10.762;2022-08-21T07:59:08;3.28;;;1.52;;
8556;SDS011;4316;53.840;10.762;2022-08-21T08:01:33;4.22;;;1.65;;
8556;SDS011;4316;53.840;10.762;2022-08-21T08:03:59;5.30;;;1.65;;
8556;SDS011;4316;53.840;10.762;2022-08-21T08:06:24;6.72;;;1.88;;
8556;SDS011;4316;53.840;10.762;2022-08-21T08:08:51;5.85;;;1.83;;
8556;SDS011;4316;53.840;10.762;2022-08-21T08:11:17;4.00;;;1.90;;
8556;SDS011;4316;53.840;10.762;2022-08-21T08:13:44;5.88;;;1.95;;
8556;SDS011;4316;53.840;10.762;2022-08-21T08:16:12;3.35;;;1.77;;
8556;SDS011;4316;53.840;10.762;2022-08-21T08:18:38;8.10;;;2.00;;
8556;SDS011;4316;53.840;10.762;2022-08-21T08:21:04;6.05;;;1.83;;
8556;SDS011;4316;53.840;10.762;2022-08-21T08:23:30;6.72;;;1.92;;
8556;SDS011;4316;53.840;10.762;2022-08-21T08:25:57;8.05;;;1.75;;
8556;SDS011;4316;53.840;10.762;2022-08-21T08:28:23;2.45;;;1.45;;
8556;SDS011;4316;53.840;10.762;2022-08-21T08:30:50;2.45;;;1.70;;
8556;SDS011;4316;53.840;10.762;2022-08-21T08:33:16;3.72;;;1.90;;
8556;SDS011;4316;53.840;10.762;2022-08-21T08:35:45;2.80;;;1.50;;
8556;SDS011;4316;53.840;10.762;2022-08-21T08:38:13;6.68;;;2.22;;
8556;SDS011;4316;53.840;10.762;2022-08-21T08:43:30;3.45;;;1.92;;
8556;SDS011;4316;53.840;10.762;2022-08-21T08:45:59;5.47;;;2.22;;
8556;SDS011;4316;53.840;10.762;2022-08-21T08:54:11;5.78;;;1.75;;
8556;SDS011;4316;53.840;10.762;2022-08-21T08:56:42;7.38;;;2.33;;
8556;SDS011;4316;53.840;10.762;2022-08-21T08:59:20;4.95;;;1.90;;
8556;SDS011;4316;53.840;10.762;2022-08-21T09:01:52;3.58;;;1.77;;
8556;SDS011;4316;53.840;10.762;2022-08-21T09:04:20;8.48;;;1.83;;
8556;SDS011;4316;53.840;10.762;2022-08-21T09:12:06;2.65;;;1.48;;
8556;SDS011;4316;53.840;10.762;2022-08-21T09:17:48;5.93;;;2.13;;
8556;SDS011;4316;53.840;10.762;2022-08-21T09:25:59;2.33;;;1.60;;
8556;SDS011;4316;53.840;10.762;2022-08-21T09:28:49;10.50;;;2.72;;
8556;SDS011;4316;53.840;10.762;2022-08-21T09:31:22;7.20;;;1.90;;
8556;SDS011;4316;53.840;10.762;2022-08-21T09:33:56;3.67;;;1.95;;
8556;SDS011;4316;53.840;10.762;2022-08-21T09:36:24;3.80;;;1.58;;
8556;SDS011;4316;53.840;10.762;2022-08-21T09:38:55;7.85;;;2.03;;
8556;SDS011;4316;53.840;10.762;2022-08-21T09:41:28;3.53;;;1.60;;
8556;SDS011;4316;53.840;10.762;2022-08-21T09:43:56;3.65;;;1.45;;
8556;SDS011;4316;53.840;10.762;2022-08-21T09:46:23;3.95;;;1.50;;
8556;SDS011;4316;53.840;10.762;2022-08-21T09:48:51;3.25;;;1.50;;
8556;SDS011;4316;53.840;10.762;2022-08-21T09:51:23;5.43;;;2.22;;
8556;SDS011;4316;53.840;10.762;2022-08-21T09:53:57;7.20;;;1.98;;
8556;SDS011;4316;53.840;10.762;2022-08-21T09:56:37;8.15;;;1.90;;
8556;SDS011;4316;53.840;10.762;2022-08-21T10:01:57;7.43;;;1.80;;
8556;SDS011;4316;53.840;10.762;2022-08-21T10:04:33;2.38;;;1.40;;
8556;SDS011;4316;53.840;10.762;2022-08-21T10:07:10;2.72;;;1.40;;
8556;SDS011;4316;53.840;10.762;2022-08-21T10:09:37;3.15;;;1.80;;
8556;SDS011;4316;53.840;10.762;2022-08-21T10:14:44;4.88;;;1.98;;
8556;SDS011;4316;53.840;10.762;2022-08-21T10:20:04;3.55;;;1.75;;
8556;SDS011;4316;53.840;10.762;2022-08-21T10:22:34;4.30;;;1.70;;
8556;SDS011;4316;53.840;10.762;2022-08-21T10:27:51;4.00;;;1.90;;
8556;SDS011;4316;53.840;10.762;2022-08-21T10:30:56;4.40;;;1.83;;
8556;SDS011;4316;53.840;10.762;2022-08-21T10:33:52;6.30;;;2.10;;
8556;SDS011;4316;53.840;10.762;2022-08-21T10:39:33;5.07;;;1.80;;
8556;SDS011;4316;53.840;10.762;2022-08-21T10:47:28;7.80;;;1.67;;
8556;SDS011;4316;53.840;10.762;2022-08-21T10:50:11;4.85;;;2.15;;
8556;SDS011;4316;53.840;10.762;2022-08-21T10:58:45;7.45;;;2.10;;
8556;SDS011;4316;53.840;10.762;2022-08-21T11:01:26;7.85;;;2.40;;
8556;SDS011;4316;53.840;10.762;2022-08-21T11:04:15;4.95;;;1.63;;
8556;SDS011;4316;53.840;10.762;2022-08-21T11:06:49;6.78;;;1.85;;
8556;SDS011;4316;53.840;10.762;2022-08-21T11:09:23;4.00;;;2.05;;
8556;SDS011;4316;53.840;10.762;2022-08-21T11:11:56;7.00;;;1.70;;
8556;SDS011;4316;53.840;10.762;2022-08-21T11:17:09;5.28;;;1.98;;
8556;SDS011;4316;53.840;10.762;2022-08-21T11:20:20;4.32;;;1.45;;
8556;SDS011;4316;53.840;10.762;2022-08-21T11:22:48;7.88;;;2.05;;
8556;SDS011;4316;53.840;10.762;2022-08-21T11:25:26;7.65;;;2.15;;
8556;SDS011;4316;53.840;10.762;2022-08-21T11:28:00;8.23;;;2.13;;
8556;SDS011;4316;53.840;10.762;2022-08-21T11:33:48;11.55;;;2.40;;
8556;SDS011;4316;53.840;10.762;2022-08-21T11:36:38;8.02;;;2.00;;
8556;SDS011;4316;53.840;10.762;2022-08-21T11:42:13;5.57;;;2.00;;
8556;SDS011;4316;53.840;10.762;2022-08-21T11:45:22;4.80;;;1.92;;
8556;SDS011;4316;53.840;10.762;2022-08-21T11:48:14;4.68;;;1.83;;
8556;SDS011;4316;53.840;10.762;2022-08-21T11:50:51;5.50;;;2.40;;
8556;SDS011;4316;53.840;10.762;2022-08-21T11:53:23;9.07;;;2.50;;
8556;SDS011;4316;53.840;10.762;2022-08-21T11:56:05;8.35;;;2.25;;
8556;SDS011;4316;53.840;10.762;2022-08-21T11:58:37;6.35;;;1.95;;
8556;SDS011;4316;53.840;10.762;2022-08-21T12:01:11;7.40;;;2.22;;
8556;SDS011;4316;53.840;10.762;2022-08-21T12:03:52;8.30;;;2.15;;
8556;SDS011;4316;53.840;10.762;2022-08-21T12:06:33;4.18;;;2.42;;
8556;SDS011;4316;53.840;10.762;2022-08-21T12:09:05;7.82;;;2.42;;
8556;SDS011;4316;53.840;10.762;2022-08-21T12:11:43;5.70;;;2.58;;
8556;SDS011;4316;53.840;10.762;2022-08-21T12:14:14;5.43;;;2.35;;
8556;SDS011;4316;53.840;10.762;2022-08-21T12:16:42;8.82;;;4.65;;
8556;SDS011;4316;53.840;10.762;2022-08-21T12:19:11;5.53;;;2.55;;
8556;SDS011;4316;53.840;10.762;2022-08-21T12:26:53;6.47;;;4.18;;
8556;SDS011;4316;53.840;10.762;2022-08-21T12:29:27;4.80;;;2.38;;
8556;SDS011;4316;53.840;10.762;2022-08-21T12:32:01;5.82;;;2.50;;
8556;SDS011;4316;53.840;10.762;2022-08-21T12:35:06;8.27;;;2.35;;
8556;SDS011;4316;53.840;10.762;2022-08-21T12:37:38;6.07;;;2.22;;
8556;SDS011;4316;53.840;10.762;2022-08-21T12:40:18;6.22;;;2.60;;
8556;SDS011;4316;53.840;10.762;2022-08-21T12:42:52;6.32;;;2.25;;
8556;SDS011;4316;53.840;10.762;2022-08-21T12:45:20;11.77;;;2.10;;
8556;SDS011;4316;53.840;10.762;2022-08-21T12:48:00;3.95;;;1.77;;
8556;SDS011;4316;53.840;10.762;2022-08-21T12:53:25;3.45;;;1.90;;
8556;SDS011;4316;53.840;10.762;2022-08-21T12:56:03;6.97;;;1.90;;
8556;SDS011;4316;53.840;10.762;2022-08-21T12:58:33;6.72;;;2.08;;
8556;SDS011;4316;53.840;10.762;2022-08-21T13:01:02;5.18;;;2.20;;
8556;SDS011;4316;53.840;10.762;2022-08-21T13:03:34;4.40;;;1.95;;
8556;SDS011;4316;53.840;10.762;2022-08-21T13:06:05;2.20;;;1.65;;
8556;SDS011;4316;53.840;10.762;2022-08-21T13:08:34;5.22;;;2.15;;
8556;SDS011;4316;53.840;10.762;2022-08-21T13:11:02;7.53;;;1.90;;
8556;SDS011;4316;53.840;10.762;2022-08-21T13:13:30;4.25;;;1.80;;
8556;SDS011;4316;53.840;10.762;2022-08-21T13:16:00;4.65;;;2.60;;
8556;SDS011;4316;53.840;10.762;2022-08-21T13:18:30;2.67;;;1.50;;
8556;SDS011;4316;53.840;10.762;2022-08-21T13:21:14;2.75;;;1.55;;
8556;SDS011;4316;53.840;10.762;2022-08-21T13:23:40;5.88;;;1.88;;
8556;SDS011;4316;53.840;10.762;2022-08-21T13:29:05;3.58;;;1.75;;
8556;SDS011;4316;53.840;10.762;2022-08-21T13:31:32;5.13;;;1.67;;
8556;SDS011;4316;53.840;10.762;2022-08-21T13:33:58;4.57;;;1.50;;
8556;SDS011;4316;53.840;10.762;2022-08-21T13:36:29;7.32;;;1.40;;
8556;SDS011;4316;53.840;10.762;2022-08-21T13:39:03;3.35;;;1.75;;
8556;SDS011;4316;53.840;10.762;2022-08-21T13:41:32;5.80;;;1.48;;
8556;SDS011;4316;53.840;10.762;2022-08-21T13:44:15;3.85;;;1.85;;
8556;SDS011;4316;53.840;10.762;2022-08-21T13:46:43;1.98;;;1.42;;
8556;SDS011;4316;53.840;10.762;2022-08-21T13:49:17;4.80;;;1.60;;
8556;SDS011;4316;53.840;10.762;2022-08-21T13:51:46;2.15;;;1.35;;
8556;SDS011;4316;53.840;10.762;2022-08-21T13:54:27;2.33;;;1.40;;
8556;SDS011;4316;53.840;10.762;2022-08-21T13:56:58;5.82;;;1.70;;
8556;SDS011;4316;53.840;10.762;2022-08-21T13:59:28;2.22;;;1.17;;
8556;SDS011;4316;53.840;10.762;2022-08-21T14:02:08;3.38;;;1.50;;
8556;SDS011;4316;53.840;10.762;2022-08-21T14:04:51;6.50;;;1.40;;
8556;SDS011;4316;53.840;10.762;2022-08-21T14:07:37;1.55;;;1.10;;
8556;SDS011;4316;53.840;10.762;2022-08-21T14:12:43;3.95;;;1.35;;
8556;SDS011;4316;53.840;10.762;2022-08-21T14:15:13;1.88;;;1.30;;
8556;SDS011;4316;53.840;10.762;2022-08-21T14:17:41;2.90;;;1.45;;
8556;SDS011;4316;53.840;10.762;2022-08-21T14:20:12;4.35;;;1.40;;
8556;SDS011;4316;53.840;10.762;2022-08-21T14:22:50;3.15;;;1.58;;
8556;SDS011;4316;53.840;10.762;2022-08-21T14:27:56;4.82;;;1.75;;
8556;SDS011;4316;53.840;10.762;2022-08-21T14:30:38;5.85;;;4.18;;
8556;SDS011;4316;53.840;10.762;2022-08-21T14:33:08;2.30;;;1.55;;
8556;SDS011;4316;53.840;10.762;2022-08-21T14:35:35;3.15;;;1.90;;
8556;SDS011;4316;53.840;10.762;2022-08-21T14:38:01;1.88;;;1.52;;
8556;SDS011;4316;53.840;10.762;2022-08-21T14:40:27;3.90;;;1.73;;
8556;SDS011;4316;53.840;10.762;2022-08-21T14:42:53;4.00;;;1.50;;
8556;SDS011;4316;53.840;10.762;2022-08-21T14:45:23;3.22;;;1.50;;
8556;SDS011;4316;53.840;10.762;2022-08-21T14:47:54;2.47;;;1.70;;
8556;SDS011;4316;53.840;10.762;2022-08-21T14:50:20;1.50;;;1.33;;
8556;SDS011;4316;53.840;10.762;2022-08-21T14:52:46;3.17;;;1.30;;
8556;SDS011;4316;53.840;10.762;2022-08-21T14:55:16;1.60;;;1.25;;
8556;SDS011;4316;53.840;10.762;2022-08-21T14:57:44;3.08;;;1.20;;
8556;SDS011;4316;53.840;10.762;2022-08-21T15:00:12;2.25;;;1.33;;
8556;SDS011;4316;53.840;10.762;2022-08-21T15:02:43;1.70;;;1.10;;
8556;SDS011;4316;53.840;10.762;2022-08-21T15:05:09;3.38;;;1.50;;
8556;SDS011;4316;53.840;10.762;2022-08-21T15:07:35;3.25;;;1.38;;
8556;SDS011;4316;53.840;10.762;2022-08-21T15:10:01;2.38;;;1.38;;
8556;SDS011;4316;53.840;10.762;2022-08-21T15:12:27;1.80;;;1.30;;
8556;SDS011;4316;53.840;10.762;2022-08-21T15:14:54;3.25;;;1.40;;
8556;SDS011;4316;53.840;10.762;2022-08-21T15:17:21;4.40;;;1.30;;
8556;SDS011;4316;53.840;10.762;2022-08-21T15:19:46;4.13;;;1.40;;
8556;SDS011;4316;53.840;10.762;2022-08-21T15:22:12;3.17;;;1.00;;
8556;SDS011;4316;53.840;10.762;2022-08-21T15:24:37;1.50;;;1.10;;
8556;SDS011;4316;53.840;10.762;2022-08-21T15:27:07;2.25;;;0.95;;
8556;SDS011;4316;53.840;10.762;2022-08-21T15:29:34;1.20;;;0.98;;
8556;SDS011;4316;53.840;10.762;2022-08-21T15:32:17;1.65;;;1.08;;
8556;SDS011;4316;53.840;10.762;2022-08-21T15:34:48;6.57;;;1.40;;
8556;SDS011;4316;53.840;10.762;2022-08-21T15:37:15;5.30;;;1.50;;
8556;SDS011;4316;53.840;10.762;2022-08-21T15:39:41;2.92;;;2.10;;
8556;SDS011;4316;53.840;10.762;2022-08-21T15:42:06;7.30;;;3.10;;
8556;SDS011;4316;53.840;10.762;2022-08-21T15:44:32;7.13;;;2.70;;
8556;SDS011;4316;53.840;10.762;2022-08-21T15:46:58;7.55;;;3.47;;
8556;SDS011;4316;53.840;10.762;2022-08-21T15:49:24;8.73;;;4.38;;
8556;SDS011;4316;53.840;10.762;2022-08-21T15:51:53;3.83;;;2.53;;
8556;SDS011;4316;53.840;10.762;2022-08-21T15:54:21;2.95;;;1.95;;
8556;SDS011;4316;53.840;10.762;2022-08-21T15:56:50;6.60;;;2.10;;
8556;SDS011;4316;53.840;10.762;2022-08-21T15:59:20;4.18;;;1.95;;
8556;SDS011;4316;53.840;10.762;2022-08-21T16:01:48;2.00;;;1.40;;
8556;SDS011;4316;53.840;10.762;2022-08-21T16:04:19;5.85;;;1.63;;
8556;SDS011;4316;53.840;10.762;2022-08-21T16:06:50;2.17;;;1.10;;
8556;SDS011;4316;53.840;10.762;2022-08-21T16:09:20;10.32;;;2.15;;
8556;SDS011;4316;53.840;10.762;2022-08-21T16:11:48;6.40;;;3.80;;
8556;SDS011;4316;53.840;10.762;2022-08-21T16:14:14;3.17;;;1.50;;
8556;SDS011;4316;53.840;10.762;2022-08-21T16:16:41;1.73;;;1.15;;
8556;SDS011;4316;53.840;10.762;2022-08-21T16:19:07;3.50;;;1.40;;
8556;SDS011;4316;53.840;10.762;2022-08-21T16:21:34;1.83;;;1.35;;
8556;SDS011;4316;53.840;10.762;2022-08-21T16:24:03;4.95;;;1.15;;
8556;SDS011;4316;53.840;10.762;2022-08-21T16:26:29;4.22;;;1.10;;